Time;durP1;ratioP1;P1;durP2;ratioP2;P2;SDS_P1;SDS_P2;PMS_P1;PMS_P2;Temp;Humidity;BMP_temperature;BMP_pressure;BME280_temperature;BME280_humidity;BME280_pressure;Samples;Min_cycle;Max_cycle;Signal;HPM_P1;HPM_P2
2021/10/02 03:31:28;;;;;;;;;;;9.10;99.90;;;;;;5054700;28;19909;-83
2021/10/02 03:33:54;;;;;;;;;;;9.10;99.90;;;;;;5055448;28;19916;-81
2021/10/02 10:24:38;;;;;;;;;;;10.70;99.90;;;;;;5068690;28;20372;-86
2021/10/02 10:27:05;;;;;;;;;;;10.70;99.90;;;;;;5061157;28;20011;-86
2021/10/02 10:41:59;;;;;;;;;;;10.60;99.90;;;;;;5141444;22;19984;-88
2021/10/02 10:44:26;;;;;;;;;;;10.70;99.90;;;;;;5039757;28;19932;-90
2021/10/02 11:46:30;;;;;;;;;;;10.80;99.90;;;;;;5112785;27;19912;-86
2021/10/02 11:49:12;;;;;;;;;;;10.70;99.90;;;;;;5112701;28;19938;-85
2021/10/02 11:51:38;;;;;;;;;;;10.70;99.90;;;;;;5112922;28;19935;-87
2021/10/02 11:57:09;;;;;;;;;;;10.70;99.90;;;;;;5113226;28;20062;-84
2021/10/02 11:59:40;;;;;;;;;;;10.70;99.90;;;;;;5112719;28;19924;-86
2021/10/02 12:02:09;;;;;;;;;;;10.70;99.90;;;;;;5112749;28;19924;-85
2021/10/02 12:04:35;;;;;;;;;;;10.70;99.90;;;;;;5112478;28;19928;-87
2021/10/02 12:07:03;;;;;;;;;;;10.60;99.90;;;;;;5112637;28;19924;-86
2021/10/02 12:09:30;;;;;;;;;;;10.70;99.90;;;;;;5112475;28;19924;-86
2021/10/02 12:11:57;;;;;;;;;;;10.80;99.90;;;;;;5112640;28;19932;-86
2021/10/02 12:14:24;;;;;;;;;;;10.80;99.90;;;;;;5112301;28;19924;-87
2021/10/02 12:16:51;;;;;;;;;;;10.90;99.90;;;;;;5112463;28;19928;-87
2021/10/02 12:19:21;;;;;;;;;;;10.90;99.90;;;;;;5112283;28;19978;-87
2021/10/02 12:21:48;;;;;;;;;;;10.90;99.90;;;;;;5112262;28;19924;-88
2021/10/02 12:24:16;;;;;;;;;;;11.00;99.90;;;;;;5112218;28;19934;-88
2021/10/02 12:26:44;;;;;;;;;;;11.00;99.90;;;;;;5112161;28;19924;-88
2021/10/02 12:29:12;;;;;;;;;;;11.00;99.90;;;;;;5112278;28;19924;-88
2021/10/02 12:31:47;;;;;;;;;;;11.10;99.90;;;;;;5112193;28;19934;-88
2021/10/02 12:34:14;;;;;;;;;;;11.10;99.90;;;;;;5111931;28;19924;-88
2021/10/02 12:36:43;;;;;;;;;;;11.10;99.90;;;;;;5111844;28;20235;-88
2021/10/02 12:39:10;;;;;;;;;;;11.10;99.90;;;;;;5112077;28;19963;-88
2021/10/02 12:41:38;;;;;;;;;;;11.10;99.90;;;;;;5111906;28;19930;-88
2021/10/02 12:44:05;;;;;;;;;;;11.10;99.90;;;;;;5112418;28;19935;-88
2021/10/02 12:46:32;;;;;;;;;;;11.20;99.90;;;;;;5123942;28;19965;-87
2021/10/02 12:48:59;;;;;;;;;;;11.20;99.90;;;;;;5118407;28;19934;-87
2021/10/02 12:51:26;;;;;;;;;;;11.20;99.90;;;;;;5118406;28;19923;-87
2021/10/02 12:53:54;;;;;;;;;;;11.20;99.90;;;;;;5118391;28;19924;-87
2021/10/02 12:56:21;;;;;;;;;;;11.30;99.90;;;;;;5118353;28;19938;-87
2021/10/02 12:58:48;;;;;;;;;;;11.30;99.90;;;;;;5118341;28;19923;-88
2021/10/02 13:01:15;;;;;;;;;;;11.40;99.90;;;;;;5118522;28;19934;-88
2021/10/02 13:03:42;;;;;;;;;;;11.40;99.90;;;;;;5118444;28;19934;-88
2021/10/02 13:06:09;;;;;;;;;;;11.40;99.90;;;;;;5117989;28;19924;-87
2021/10/02 13:08:36;;;;;;;;;;;11.50;99.90;;;;;;5118081;28;19928;-87
2021/10/02 13:11:04;;;;;;;;;;;11.40;99.90;;;;;;5117879;28;20367;-85
2021/10/02 13:13:33;;;;;;;;;;;11.50;99.90;;;;;;5117994;28;19927;-87
2021/10/02 13:16:04;;;;;;;;;;;11.50;99.90;;;;;;5116476;28;19934;-87
2021/10/02 13:18:34;;;;;;;;;;;11.50;99.90;;;;;;5118126;28;19985;-87
2021/10/02 13:21:04;;;;;;;;;;;11.50;99.90;;;;;;5117991;28;19974;-88
2021/10/02 13:23:35;;;;;;;;;;;11.50;99.90;;;;;;5114790;28;19924;-88
2021/10/02 13:26:05;;;;;;;;;;;11.60;99.90;;;;;;5117562;28;19924;-88
2021/10/02 13:28:34;;;;;;;;;;;11.60;99.90;;;;;;5117578;28;20073;-88
2021/10/02 13:31:06;;;;;;;;;;;11.60;99.90;;;;;;5117660;28;20254;-89
2021/10/02 13:33:40;;;;;;;;;;;11.60;99.90;;;;;;5117654;28;19924;-87
2021/10/02 13:36:08;;;;;;;;;;;11.70;99.90;;;;;;5117383;28;19930;-87
2021/10/02 13:38:37;;;;;;;;;;;11.70;99.90;;;;;;5117404;28;19934;-88
2021/10/02 13:41:07;;;;;;;;;;;11.70;99.90;;;;;;5117306;28;19924;-87
2021/10/02 13:43:34;;;;;;;;;;;11.70;99.90;;;;;;5117459;28;20364;-87
2021/10/02 13:46:03;;;;;;;;;;;11.70;99.90;;;;;;5116950;28;20347;-87
2021/10/02 13:48:31;;;;;;;;;;;11.70;99.90;;;;;;5117178;28;20411;-88
2021/10/02 13:50:59;;;;;;;;;;;11.70;99.90;;;;;;5117464;28;20018;-88
2021/10/02 13:53:26;;;;;;;;;;;11.60;99.90;;;;;;5117197;28;19930;-88
2021/10/02 13:55:53;;;;;;;;;;;11.70;99.90;;;;;;5116911;28;19934;-87
2021/10/02 13:58:23;;;;;;;;;;;11.70;99.90;;;;;;5116139;28;19928;-87
2021/10/02 14:00:50;;;;;;;;;;;11.70;99.90;;;;;;5116935;28;20005;-87
2021/10/02 14:03:16;;;;;;;;;;;11.60;99.90;;;;;;5117168;28;20272;-87
2021/10/02 14:05:43;;;;;;;;;;;11.60;99.90;;;;;;5117076;28;19934;-87
2021/10/02 14:08:10;;;;;;;;;;;11.60;99.90;;;;;;5116638;28;19924;-87
2021/10/02 14:10:37;;;;;;;;;;;11.60;99.90;;;;;;5116633;28;19924;-87
2021/10/02 14:13:04;;;;;;;;;;;11.60;99.90;;;;;;5116683;28;20334;-88
2021/10/02 14:15:32;;;;;;;;;;;11.60;99.90;;;;;;5116970;28;19924;-87
2021/10/02 14:17:59;;;;;;;;;;;11.50;99.90;;;;;;5116943;28;19924;-86
2021/10/02 14:20:26;;;;;;;;;;;11.50;99.90;;;;;;5116639;28;19934;-87
2021/10/02 14:22:53;;;;;;;;;;;11.60;99.90;;;;;;5116595;28;19924;-87
2021/10/02 14:25:20;;;;;;;;;;;11.60;99.90;;;;;;5116348;28;19923;-87
2021/10/02 14:27:50;;;;;;;;;;;11.60;99.90;;;;;;5098627;28;19923;-86
2021/10/02 14:30:21;;;;;;;;;;;11.60;99.90;;;;;;5116759;28;20022;-86
2021/10/02 14:32:50;;;;;;;;;;;11.60;99.90;;;;;;5116668;28;19924;-87
2021/10/02 14:35:18;;;;;;;;;;;11.60;99.90;;;;;;5116193;28;19923;-87
2021/10/02 14:37:46;;;;;;;;;;;11.60;99.90;;;;;;5116378;28;19924;-86
2021/10/02 14:40:14;;;;;;;;;;;11.70;99.90;;;;;;5116237;28;20026;-87
2021/10/02 14:42:43;;;;;;;;;;;11.70;99.90;;;;;;5116435;28;19934;-87
2021/10/02 14:45:12;;;;;;;;;;;11.70;99.90;;;;;;5115861;28;19924;-87
2021/10/02 14:47:43;;;;;;;;;;;11.70;99.90;;;;;;5116130;28;20338;-85
2021/10/02 14:50:13;;;;;;;;;;;11.70;99.90;;;;;;5115896;28;19924;-86
2021/10/02 14:52:41;;;;;;;;;;;11.70;99.90;;;;;;5116073;28;19930;-86
2021/10/02 14:55:09;;;;;;;;;;;11.80;99.90;;;;;;5115829;28;19936;-86
2021/10/02 14:57:38;;;;;;;;;;;11.80;99.90;;;;;;5115918;28;20379;-86
2021/10/02 15:00:07;;;;;;;;;;;11.80;99.90;;;;;;5115824;28;20350;-85
2021/10/02 15:02:38;;;;;;;;;;;11.80;99.90;;;;;;5115771;28;19923;-86
2021/10/02 15:05:05;;;;;;;;;;;11.80;99.90;;;;;;5115816;28;20024;-86
2021/10/02 15:07:43;;;;;;;;;;;11.90;99.90;;;;;;5115611;28;19934;-85
2021/10/02 15:10:12;;;;;;;;;;;11.90;99.90;;;;;;5115576;28;19985;-86
2021/10/02 15:12:40;;;;;;;;;;;11.90;99.90;;;;;;5115990;28;19924;-86
2021/10/02 15:15:11;;;;;;;;;;;12.00;99.90;;;;;;5115727;28;19923;-86
2021/10/02 15:17:39;;;;;;;;;;;12.00;99.90;;;;;;5115671;28;20354;-86
2021/10/02 15:20:07;;;;;;;;;;;12.00;99.90;;;;;;5115577;28;19945;-86
2021/10/02 15:22:39;;;;;;;;;;;12.00;99.90;;;;;;5115540;28;19923;-86
2021/10/02 15:25:08;;;;;;;;;;;12.00;99.90;;;;;;5115659;28;19992;-86
2021/10/02 15:27:38;;;;;;;;;;;12.00;99.90;;;;;;5115610;28;19930;-86
2021/10/02 15:30:06;;;;;;;;;;;12.00;99.90;;;;;;5115472;28;19934;-86
2021/10/02 15:32:34;;;;;;;;;;;12.00;99.90;;;;;;5115653;28;19924;-86
2021/10/02 15:35:04;;;;;;;;;;;12.00;99.90;;;;;;5115620;28;19924;-87
2021/10/02 15:37:32;;;;;;;;;;;11.90;99.90;;;;;;5115519;28;20022;-87
2021/10/02 15:40:09;;;;;;;;;;;11.90;99.90;;;;;;5115516;28;19924;-86
2021/10/02 15:42:40;;;;;;;;;;;11.90;99.90;;;;;;5115371;28;20418;-86
2021/10/02 15:45:07;;;;;;;;;;;11.90;99.90;;;;;;5114954;28;19935;-87
2021/10/02 15:47:35;;;;;;;;;;;11.90;99.90;;;;;;5115536;28;19931;-86
2021/10/02 15:50:03;;;;;;;;;;;11.90;99.90;;;;;;5115371;28;19984;-86
2021/10/02 15:52:32;;;;;;;;;;;11.90;99.90;;;;;;5115319;28;19924;-86
2021/10/02 15:55:14;;;;;;;;;;;11.90;99.90;;;;;;5115162;28;19924;-87
2021/10/02 15:57:41;;;;;;;;;;;11.90;99.90;;;;;;5115312;28;19924;-86
2021/10/02 16:00:09;;;;;;;;;;;11.90;99.90;;;;;;5115437;28;19934;-87
2021/10/02 16:02:48;;;;;;;;;;;11.90;99.90;;;;;;5115106;28;19931;-87
2021/10/02 16:05:16;;;;;;;;;;;11.90;99.90;;;;;;5115170;28;19924;-87
2021/10/02 16:07:45;;;;;;;;;;;11.80;99.90;;;;;;5115157;28;19934;-87
2021/10/02 16:10:15;;;;;;;;;;;11.80;99.90;;;;;;5115343;28;19924;-87
2021/10/02 16:12:42;;;;;;;;;;;11.80;99.90;;;;;;5115039;28;19924;-85
2021/10/02 16:15:11;;;;;;;;;;;11.80;99.90;;;;;;5115015;28;19938;-84
2021/10/02 16:17:40;;;;;;;;;;;11.80;99.90;;;;;;5115095;28;19934;-84
2021/10/02 16:20:08;;;;;;;;;;;11.80;99.90;;;;;;5115005;28;19924;-85
2021/10/02 16:22:35;;;;;;;;;;;11.80;99.90;;;;;;5118215;28;20855;-85
2021/10/02 16:25:08;;;;;;;;;;;11.70;99.90;;;;;;5118817;28;20257;-84
2021/10/02 16:27:37;;;;;;;;;;;11.70;99.90;;;;;;5118934;28;20001;-84
2021/10/02 16:30:06;;;;;;;;;;;11.70;99.90;;;;;;5118901;28;19963;-84
2021/10/02 16:32:35;;;;;;;;;;;11.70;99.90;;;;;;5118689;28;20274;-83
2021/10/02 16:35:04;;;;;;;;;;;11.70;99.90;;;;;;5118615;28;19924;-84
2021/10/02 16:37:32;;;;;;;;;;;11.70;99.90;;;;;;5118556;28;19924;-84
2021/10/02 16:40:00;;;;;;;;;;;11.70;99.90;;;;;;5118873;28;19924;-83
2021/10/02 16:42:28;;;;;;;;;;;11.70;99.90;;;;;;5118495;28;19924;-83
2021/10/02 16:44:58;;;;;;;;;;;11.70;99.90;;;;;;5118230;28;19959;-84
2021/10/02 16:47:26;;;;;;;;;;;11.70;99.90;;;;;;5118439;28;20008;-83
2021/10/02 16:49:54;;;;;;;;;;;11.70;99.90;;;;;;5118330;28;19924;-84
2021/10/02 16:52:22;;;;;;;;;;;11.70;99.90;;;;;;5118508;28;19934;-83
2021/10/02 16:54:50;;;;;;;;;;;11.70;99.90;;;;;;5118245;28;19924;-86
2021/10/02 16:57:18;;;;;;;;;;;11.70;99.90;;;;;;5118290;28;19934;-84
2021/10/02 16:59:46;;;;;;;;;;;11.70;99.90;;;;;;5118314;28;19923;-85
2021/10/02 17:02:16;;;;;;;;;;;11.70;99.90;;;;;;5118034;28;19924;-85
2021/10/02 17:04:44;;;;;;;;;;;11.70;99.90;;;;;;5118330;28;19931;-85
2021/10/02 17:07:13;;;;;;;;;;;11.70;99.90;;;;;;5118162;28;19934;-85
2021/10/02 17:09:41;;;;;;;;;;;11.70;99.90;;;;;;5118014;28;19923;-85
2021/10/02 17:12:10;;;;;;;;;;;11.70;99.90;;;;;;5118032;28;19923;-85
2021/10/02 17:14:37;;;;;;;;;;;11.70;99.90;;;;;;5117902;28;20265;-86
2021/10/02 17:17:04;;;;;;;;;;;11.70;99.90;;;;;;5116787;28;19935;-85
2021/10/02 17:19:34;;;;;;;;;;;11.70;99.90;;;;;;5117929;28;19934;-85
2021/10/02 17:22:02;;;;;;;;;;;11.70;99.90;;;;;;5117978;28;20037;-85
2021/10/02 17:24:29;;;;;;;;;;;11.70;99.90;;;;;;5117840;28;20341;-84
2021/10/02 17:26:58;;;;;;;;;;;11.70;99.90;;;;;;5116874;28;19924;-85
2021/10/02 17:29:26;;;;;;;;;;;11.70;99.90;;;;;;5117760;28;19928;-85
2021/10/02 17:31:54;;;;;;;;;;;11.70;99.90;;;;;;5117417;28;20375;-85
2021/10/02 17:34:22;;;;;;;;;;;11.70;99.90;;;;;;5115345;28;19924;-85
2021/10/02 17:36:50;;;;;;;;;;;11.70;99.90;;;;;;5117505;28;19938;-85
2021/10/02 17:39:17;;;;;;;;;;;11.70;99.90;;;;;;5117516;28;19934;-85
2021/10/02 17:41:44;;;;;;;;;;;11.70;99.90;;;;;;5117474;28;19928;-85
2021/10/02 17:44:11;;;;;;;;;;;11.70;99.90;;;;;;5117184;28;19923;-85
2021/10/02 17:46:40;;;;;;;;;;;11.70;99.90;;;;;;5099477;28;19924;-86
2021/10/02 17:49:09;;;;;;;;;;;11.70;99.90;;;;;;5117237;28;20353;-87
2021/10/02 17:51:38;;;;;;;;;;;11.60;99.90;;;;;;5117153;28;20264;-87
2021/10/02 17:54:06;;;;;;;;;;;11.70;99.90;;;;;;5117119;28;19927;-88
2021/10/02 17:56:35;;;;;;;;;;;11.60;99.90;;;;;;5117043;28;19930;-88
2021/10/02 17:59:03;;;;;;;;;;;11.60;99.90;;;;;;5117204;28;20314;-87
2021/10/02 18:01:32;;;;;;;;;;;11.60;99.90;;;;;;5116961;28;19959;-87
2021/10/02 18:04:00;;;;;;;;;;;11.60;99.90;;;;;;5116985;28;19924;-87
2021/10/02 18:06:28;;;;;;;;;;;11.60;99.90;;;;;;5116948;28;19924;-89
2021/10/02 18:08:55;;;;;;;;;;;11.60;99.90;;;;;;5117261;28;20256;-88
2021/10/02 18:11:25;;;;;;;;;;;11.60;99.90;;;;;;5116718;28;19924;-88
2021/10/02 18:13:53;;;;;;;;;;;11.60;99.90;;;;;;5116832;28;20262;-87
2021/10/02 18:16:20;;;;;;;;;;;11.60;99.90;;;;;;5116692;28;19953;-87
2021/10/02 18:18:46;;;;;;;;;;;11.50;99.90;;;;;;5116905;28;19923;-87
2021/10/02 18:21:13;;;;;;;;;;;11.60;99.90;;;;;;5116777;28;19934;-87
2021/10/02 18:23:46;;;;;;;;;;;11.60;99.90;;;;;;5116674;28;19923;-88
2021/10/02 18:26:15;;;;;;;;;;;11.60;99.90;;;;;;5121002;28;19924;-85
2021/10/02 18:28:44;;;;;;;;;;;11.60;99.90;;;;;;5123787;28;19924;-86
2021/10/02 18:31:14;;;;;;;;;;;11.60;99.90;;;;;;5127130;28;19923;-85
2021/10/02 18:33:43;;;;;;;;;;;11.60;99.90;;;;;;5127507;28;19924;-96
2021/10/02 18:36:12;;;;;;;;;;;11.60;99.90;;;;;;5123431;28;20409;-89
2021/10/02 18:38:39;;;;;;;;;;;11.50;99.90;;;;;;5116580;28;19973;-91
2021/10/02 18:41:06;;;;;;;;;;;11.40;99.90;;;;;;5115721;28;19928;-88
2021/10/02 18:43:33;;;;;;;;;;;11.30;99.90;;;;;;5116010;28;20018;-89
2021/10/02 18:46:01;;;;;;;;;;;11.30;99.90;;;;;;5116435;28;19923;-90
2021/10/02 18:48:28;;;;;;;;;;;11.20;99.90;;;;;;5116348;28;19934;-89
2021/10/02 18:50:57;;;;;;;;;;;11.20;99.90;;;;;;5116221;28;20031;-90
2021/10/02 18:53:25;;;;;;;;;;;11.10;99.90;;;;;;5115868;28;19923;-89
2021/10/02 18:55:53;;;;;;;;;;;11.10;99.90;;;;;;5116218;28;20322;-90
2021/10/02 18:58:21;;;;;;;;;;;11.10;99.90;;;;;;5115814;28;19934;-89
2021/10/02 19:00:51;;;;;;;;;;;11.10;99.90;;;;;;5116071;28;19924;-89
2021/10/02 19:03:33;;;;;;;;;;;11.00;99.90;;;;;;5116358;28;20239;-89
2021/10/02 19:06:01;;;;;;;;;;;11.00;99.90;;;;;;5115982;28;19923;-89
2021/10/02 19:08:28;;;;;;;;;;;11.10;99.90;;;;;;5116369;28;19924;-91
2021/10/02 19:10:57;;;;;;;;;;;11.00;99.90;;;;;;5116136;28;19934;-89
2021/10/02 19:13:26;;;;;;;;;;;11.00;99.90;;;;;;5115993;28;19924;-90
2021/10/02 19:15:54;;;;;;;;;;;11.00;99.90;;;;;;5115897;28;19934;-90
2021/10/02 19:18:26;;;;;;;;;;;11.00;99.90;;;;;;5115929;28;19923;-89
2021/10/02 19:20:57;;;;;;;;;;;11.00;99.90;;;;;;5116115;28;20347;-90
2021/10/02 19:23:26;;;;;;;;;;;11.00;99.90;;;;;;5115842;28;19923;-90
2021/10/02 19:25:59;;;;;;;;;;;11.00;99.90;;;;;;5115905;28;19997;-88
2021/10/02 19:28:29;;;;;;;;;;;11.00;99.90;;;;;;5116016;28;19931;-91
2021/10/02 19:30:56;;;;;;;;;;;11.00;99.90;;;;;;5116200;28;19931;-90
2021/10/02 19:33:28;;;;;;;;;;;11.00;99.90;;;;;;5115890;28;20269;-90
2021/10/02 19:35:57;;;;;;;;;;;10.90;99.90;;;;;;5113596;28;20461;-88
2021/10/02 19:38:26;;;;;;;;;;;11.00;99.90;;;;;;5115627;28;19973;-89
2021/10/02 19:40:56;;;;;;;;;;;10.90;99.90;;;;;;5115463;28;19978;-87
2021/10/02 19:43:25;;;;;;;;;;;10.90;99.90;;;;;;5115584;28;20410;-87
2021/10/02 19:45:54;;;;;;;;;;;10.80;99.90;;;;;;5115334;28;19924;-88
2021/10/02 19:48:23;;;;;;;;;;;10.70;99.90;;;;;;5115494;28;19931;-88
2021/10/02 19:50:52;;;;;;;;;;;10.70;99.90;;;;;;5115482;28;19924;-87
2021/10/02 19:53:21;;;;;;;;;;;10.70;99.90;;;;;;5115412;28;19923;-88
2021/10/02 19:55:49;;;;;;;;;;;10.70;99.90;;;;;;5115969;28;20286;-88
2021/10/02 19:58:17;;;;;;;;;;;10.60;99.90;;;;;;5119749;28;19924;-88
2021/10/02 20:00:45;;;;;;;;;;;10.60;99.90;;;;;;5119688;28;20444;-88
2021/10/02 20:03:13;;;;;;;;;;;10.60;99.90;;;;;;5119496;28;20347;-87
2021/10/02 20:05:40;;;;;;;;;;;10.60;99.90;;;;;;5119439;28;20020;-87
2021/10/02 20:08:08;;;;;;;;;;;10.60;99.90;;;;;;5119308;28;19928;-87
2021/10/02 20:10:35;;;;;;;;;;;10.60;99.90;;;;;;5119201;28;19923;-88
2021/10/02 20:13:02;;;;;;;;;;;10.60;99.90;;;;;;5118797;28;19997;-87
2021/10/02 20:15:28;;;;;;;;;;;10.60;99.90;;;;;;5119176;28;19930;-88
2021/10/02 20:17:55;;;;;;;;;;;10.60;99.90;;;;;;5118348;28;19924;-87
2021/10/02 20:20:22;;;;;;;;;;;10.60;99.90;;;;;;5119149;28;20353;-88
2021/10/02 20:22:49;;;;;;;;;;;10.60;99.90;;;;;;5119014;28;20350;-88
2021/10/02 20:25:17;;;;;;;;;;;10.60;99.90;;;;;;5119322;28;19934;-88
2021/10/02 20:27:44;;;;;;;;;;;10.70;99.90;;;;;;5119178;28;19924;-87
2021/10/02 20:30:12;;;;;;;;;;;10.60;99.90;;;;;;5119004;28;19924;-89
2021/10/02 20:32:39;;;;;;;;;;;10.70;99.90;;;;;;5119234;28;20303;-89
2021/10/02 20:35:08;;;;;;;;;;;10.70;99.90;;;;;;5118907;28;19928;-90
2021/10/02 20:37:35;;;;;;;;;;;10.70;99.90;;;;;;5119018;28;19924;-90
2021/10/02 20:40:02;;;;;;;;;;;10.70;99.90;;;;;;5119225;28;20055;-90
2021/10/02 20:42:30;;;;;;;;;;;10.70;99.90;;;;;;5118812;28;19923;-90
2021/10/02 20:44:57;;;;;;;;;;;10.70;99.90;;;;;;5118920;28;19938;-89
2021/10/02 20:47:24;;;;;;;;;;;10.70;99.90;;;;;;5118757;28;20015;-91
2021/10/02 20:49:51;;;;;;;;;;;10.70;99.90;;;;;;5118936;28;19924;-89
2021/10/02 20:52:18;;;;;;;;;;;10.70;99.90;;;;;;5118953;28;19928;-90
2021/10/02 20:54:45;;;;;;;;;;;10.70;99.90;;;;;;5118849;28;19934;-89
2021/10/02 20:57:11;;;;;;;;;;;10.70;99.90;;;;;;5118679;28;19924;-89
2021/10/02 20:59:40;;;;;;;;;;;10.60;99.90;;;;;;5118743;28;19934;-89
2021/10/02 21:02:07;;;;;;;;;;;10.60;99.90;;;;;;5118564;28;20268;-89
2021/10/02 21:04:35;;;;;;;;;;;10.70;99.90;;;;;;5118415;28;20245;-88
2021/10/02 21:07:03;;;;;;;;;;;10.60;99.90;;;;;;5117954;28;20350;-91
2021/10/02 21:09:33;;;;;;;;;;;10.60;99.90;;;;;;5118652;28;19923;-89
2021/10/02 21:12:05;;;;;;;;;;;10.60;99.90;;;;;;5125368;28;20369;-87
2021/10/02 21:14:34;;;;;;;;;;;10.50;99.90;;;;;;5121189;28;19934;-88
2021/10/02 21:17:04;;;;;;;;;;;10.50;99.90;;;;;;5119509;28;19924;-84
2021/10/02 21:19:32;;;;;;;;;;;10.50;99.90;;;;;;5119576;28;19924;-88
2021/10/02 21:21:59;;;;;;;;;;;10.50;99.90;;;;;;5119799;28;20363;-89
2021/10/02 21:24:27;;;;;;;;;;;10.40;99.90;;;;;;5118018;28;20276;-92
2021/10/02 21:26:54;;;;;;;;;;;10.40;99.90;;;;;;5118031;28;19931;-92
2021/10/02 21:29:22;;;;;;;;;;;10.40;99.90;;;;;;5118018;28;19924;-89
2021/10/02 21:31:50;;;;;;;;;;;10.40;99.90;;;;;;5117719;28;19924;-91
2021/10/02 21:34:19;;;;;;;;;;;10.40;99.90;;;;;;5117716;28;19934;-89
2021/10/02 21:36:46;;;;;;;;;;;10.40;99.90;;;;;;5117702;28;19934;-91
2021/10/02 21:39:13;;;;;;;;;;;10.30;99.90;;;;;;5118124;28;19924;-92
2021/10/02 21:41:40;;;;;;;;;;;10.30;99.90;;;;;;5118214;28;20341;-93
2021/10/02 21:44:07;;;;;;;;;;;10.30;99.90;;;;;;5118233;28;20011;-92
2021/10/02 21:46:34;;;;;;;;;;;10.20;99.90;;;;;;5118034;28;20019;-91
2021/10/02 21:49:01;;;;;;;;;;;10.20;99.90;;;;;;5118057;28;19934;-91
2021/10/02 21:51:31;;;;;;;;;;;10.10;99.90;;;;;;5117598;28;20280;-88
2021/10/02 21:54:00;;;;;;;;;;;10.10;99.90;;;;;;5117526;28;19981;-88
2021/10/02 21:56:30;;;;;;;;;;;10.00;99.90;;;;;;5117283;28;19923;-91
2021/10/02 21:58:57;;;;;;;;;;;10.00;99.90;;;;;;5117675;28;20365;-89
2021/10/02 22:04:27;;;;;;;;;;;9.90;99.90;;;;;;5124296;28;19930;-91
2021/10/02 22:46:42;;;;;;;;;;;9.80;99.90;;;;;;5302297;22;19935;-76
2021/10/02 23:00:55;;;;;;;;;;;9.70;99.90;;;;;;5214210;22;20011;-86
2021/10/02 23:03:49;;;;;;;;;;;9.30;99.90;;;;;;5055448;28;19951;-88
2021/10/02 23:06:44;;;;;;;;;;;9.50;99.90;;;;;;5052656;28;19929;-90
2021/10/02 23:39:35;;;;;;;;;;;9.30;99.90;;;;;;5057952;28;19936;-83
2021/10/02 23:42:05;;;;;;;;;;;9.20;99.90;;;;;;5052165;28;19975;-82
2021/10/02 23:44:34;;;;;;;;;;;9.20;99.90;;;;;;5042552;28;19956;-81
2021/10/02 23:47:01;;;;;;;;;;;9.20;99.90;;;;;;5042063;28;19925;-80
